Time;durP1;ratioP1;P1;durP2;ratioP2;P2;SDS_P1;SDS_P2;PMS_P1;PMS_P2;Temp;Humidity;BMP_temperature;BMP_pressure;BME280_temperature;BME280_humidity;BME280_pressure;Samples;Min_cycle;Max_cycle;Signal;HPM_P1;HPM_P2
2021/12/29 00:02:25;;;;;;;8.82;4.65;;;-4.90;99.90;;;;;;5037211;28;20022;-87
2021/12/29 00:04:50;;;;;;;8.25;4.30;;;-4.80;99.90;;;;;;5019261;28;20120;-88
2021/12/29 00:07:16;;;;;;;8.52;4.63;;;-4.80;99.90;;;;;;5036570;28;20037;-86
2021/12/29 00:09:42;;;;;;;9.80;5.07;;;-4.80;99.90;;;;;;5036960;28;20034;-88
2021/12/29 00:12:09;;;;;;;17.25;4.82;;;-4.80;99.90;;;;;;5036660;28;20033;-89
2021/12/29 00:14:36;;;;;;;7.57;4.47;;;-4.80;99.90;;;;;;5018424;28;20029;-88
2021/12/29 00:17:02;;;;;;;9.55;4.38;;;-4.80;99.90;;;;;;5036450;28;20087;-88
2021/12/29 00:19:28;;;;;;;8.88;5.05;;;-4.80;99.90;;;;;;5018267;28;20032;-89
2021/12/29 00:21:56;;;;;;;11.32;5.10;;;-4.80;99.90;;;;;;5035736;28;20124;-89
2021/12/29 00:24:21;;;;;;;9.63;4.68;;;-4.80;99.90;;;;;;5036496;28;20036;-88
2021/12/29 00:26:47;;;;;;;8.93;4.82;;;-4.80;99.90;;;;;;5018646;28;20037;-89
2021/12/29 00:29:14;;;;;;;10.07;5.13;;;-4.80;99.90;;;;;;5036714;28;20451;-88
2021/12/29 00:31:40;;;;;;;7.40;4.05;;;-4.80;99.90;;;;;;5019186;28;20060;-88
2021/12/29 00:34:05;;;;;;;9.73;4.85;;;-4.80;99.90;;;;;;5041783;28;20403;-87
2021/12/29 00:36:31;;;;;;;9.07;4.97;;;-4.80;99.90;;;;;;5045800;28;20083;-90
2021/12/29 00:38:57;;;;;;;10.18;5.43;;;-4.80;99.90;;;;;;5025646;28;20025;-88
2021/12/29 00:41:23;;;;;;;8.07;4.50;;;-4.80;99.90;;;;;;5023962;28;20044;-86
2021/12/29 00:43:49;;;;;;;9.52;4.72;;;-4.80;99.90;;;;;;5056390;28;20026;-86
2021/12/29 00:46:18;;;;;;;9.95;4.93;;;-4.80;99.90;;;;;;5037796;28;20025;-89
2021/12/29 00:48:45;;;;;;;10.40;4.80;;;-4.80;99.90;;;;;;5024335;28;20368;-87
2021/12/29 00:51:12;;;;;;;9.07;4.68;;;-4.80;99.90;;;;;;5018361;28;20033;-87
2021/12/29 00:53:38;;;;;;;10.07;5.05;;;-4.90;99.90;;;;;;5018202;28;20025;-87
2021/12/29 00:56:05;;;;;;;8.35;4.47;;;-4.90;99.90;;;;;;5017933;28;20033;-87
2021/12/29 00:58:30;;;;;;;9.25;4.95;;;-4.80;99.90;;;;;;5035199;28;20108;-88
2021/12/29 01:00:57;;;;;;;11.65;5.35;;;-4.80;99.90;;;;;;5035805;28;20061;-87
2021/12/29 01:03:23;;;;;;;8.85;4.72;;;-4.80;99.90;;;;;;5016614;28;20025;-87
2021/12/29 01:05:50;;;;;;;11.45;5.45;;;-4.80;99.90;;;;;;5017507;28;20116;-88
2021/12/29 01:08:16;;;;;;;10.85;5.50;;;-4.90;99.90;;;;;;5017626;28;20072;-88
2021/12/29 01:10:42;;;;;;;11.40;5.55;;;-4.90;99.90;;;;;;5017224;28;20091;-87
2021/12/29 01:13:10;;;;;;;13.20;5.97;;;-4.90;99.90;;;;;;5017554;28;20032;-88
2021/12/29 01:16:08;;;;;;;13.00;6.03;;;-4.90;99.90;;;;;;5035223;28;20033;-87
2021/12/29 01:18:37;;;;;;;12.80;5.40;;;-4.90;99.90;;;;;;5034887;28;20033;-87
2021/12/29 01:21:03;;;;;;;9.52;5.30;;;-4.90;99.90;;;;;;5035210;28;20056;-87
2021/12/29 01:23:29;;;;;;;12.50;6.30;;;-4.90;99.90;;;;;;5034973;28;20476;-87
2021/12/29 01:25:55;;;;;;;11.90;5.50;;;-4.90;99.90;;;;;;5034641;28;20028;-87
2021/12/29 01:28:21;;;;;;;13.38;6.90;;;-4.90;99.90;;;;;;5034486;28;20060;-88
2021/12/29 01:30:47;;;;;;;12.73;5.80;;;-4.80;99.90;;;;;;5028127;28;20026;-89
2021/12/29 01:33:12;;;;;;;13.98;6.88;;;-4.80;99.90;;;;;;5016423;28;20494;-88
2021/12/29 01:35:39;;;;;;;16.13;7.07;;;-4.80;99.90;;;;;;5015226;28;20465;-89
2021/12/29 01:38:09;;;;;;;12.77;6.03;;;-4.80;99.90;;;;;;5013950;28;20034;-87
2021/12/29 01:40:37;;;;;;;9.43;5.20;;;-4.80;99.90;;;;;;5016314;28;20470;-88
2021/12/29 01:43:08;;;;;;;10.48;4.97;;;-4.90;99.90;;;;;;5018307;28;20030;-88
2021/12/29 01:45:34;;;;;;;13.77;5.63;;;-4.80;99.90;;;;;;5000739;28;20045;-88
2021/12/29 01:48:02;;;;;;;13.27;6.45;;;-4.80;99.90;;;;;;5001588;28;20037;-84
2021/12/29 01:50:30;;;;;;;14.90;7.03;;;-4.80;99.90;;;;;;5029537;28;20080;-86
2021/12/29 01:53:01;;;;;;;13.75;6.78;;;-4.90;99.90;;;;;;5025967;28;20136;-87
2021/12/29 01:55:30;;;;;;;14.00;6.38;;;-4.90;99.90;;;;;;4998755;28;20053;-87
2021/12/29 01:57:57;;;;;;;13.20;6.13;;;-4.80;99.90;;;;;;5018124;28;20033;-85
2021/12/29 02:00:26;;;;;;;20.58;9.07;;;-4.90;99.90;;;;;;5018863;28;20414;-87
2021/12/29 02:02:52;;;;;;;18.40;8.57;;;-4.90;99.90;;;;;;5000766;28;20034;-84
2021/12/29 02:05:19;;;;;;;18.50;9.43;;;-4.90;99.90;;;;;;4999444;28;20049;-84
2021/12/29 02:07:45;;;;;;;19.42;9.27;;;-4.90;99.90;;;;;;5017252;28;20073;-84
2021/12/29 02:10:13;;;;;;;16.08;8.13;;;-4.90;99.90;;;;;;5015130;28;20467;-86
2021/12/29 02:12:39;;;;;;;20.77;8.73;;;-5.00;99.90;;;;;;5014858;28;20057;-87
2021/12/29 02:15:06;;;;;;;17.75;8.18;;;-5.00;99.90;;;;;;4998296;28;20548;-87
2021/12/29 02:17:32;;;;;;;15.18;7.60;;;-5.00;99.90;;;;;;5001434;28;20033;-87
2021/12/29 02:20:05;;;;;;;13.20;6.72;;;-5.00;99.90;;;;;;5019020;28;20042;-87
2021/12/29 02:25:18;;;;;;;13.38;6.43;;;-5.10;99.90;;;;;;5019078;28;20091;-87
2021/12/29 02:27:44;;;;;;;14.85;6.93;;;-5.10;99.90;;;;;;5018980;28;20448;-87
2021/12/29 02:30:11;;;;;;;14.23;7.30;;;-5.10;99.90;;;;;;5018869;28;20033;-88
2021/12/29 02:32:37;;;;;;;16.98;8.80;;;-5.10;99.90;;;;;;5000680;28;20028;-87
2021/12/29 02:35:04;;;;;;;18.80;8.25;;;-5.20;99.90;;;;;;5018454;28;20099;-87
2021/12/29 02:37:30;;;;;;;19.40;8.73;;;-5.20;99.90;;;;;;5018629;28;20041;-87
2021/12/29 02:39:55;;;;;;;20.52;9.20;;;-5.10;99.90;;;;;;5018386;28;20030;-87
2021/12/29 02:42:27;;;;;;;16.10;7.50;;;-5.20;99.90;;;;;;5017041;28;20116;-87
2021/12/29 02:44:53;;;;;;;11.50;6.82;;;-5.20;99.90;;;;;;5018804;28;20030;-87
2021/12/29 02:47:19;;;;;;;16.00;6.53;;;-5.20;99.90;;;;;;5018194;28;20603;-87
2021/12/29 02:49:45;;;;;;;13.00;6.88;;;-5.20;99.90;;;;;;5020496;28;20081;-89
2021/12/29 02:52:16;;;;;;;13.88;7.22;;;-5.20;99.90;;;;;;5006093;28;20033;-88
2021/12/29 02:54:41;;;;;;;14.02;6.53;;;-5.20;99.90;;;;;;5026111;28;20052;-87
2021/12/29 02:57:07;;;;;;;12.38;5.90;;;-5.20;99.90;;;;;;5035898;28;20029;-88
2021/12/29 02:59:33;;;;;;;13.48;6.40;;;-5.20;99.90;;;;;;5036103;28;20030;-88
2021/12/29 03:01:59;;;;;;;12.02;5.65;;;-5.20;99.90;;;;;;5027143;28;20050;-88
2021/12/29 03:04:25;;;;;;;13.30;7.07;;;-5.10;99.90;;;;;;5022205;28;20037;-89
2021/12/29 03:06:51;;;;;;;10.77;5.90;;;-5.10;99.90;;;;;;5017787;28;20026;-89
2021/12/29 03:09:17;;;;;;;11.98;5.88;;;-5.10;99.90;;;;;;5016968;28;20034;-88
2021/12/29 03:11:45;;;;;;;12.68;6.20;;;-5.10;99.90;;;;;;5019419;28;20037;-88
2021/12/29 03:14:11;;;;;;;16.52;7.07;;;-5.10;99.90;;;;;;5018496;28;20030;-88
2021/12/29 03:16:38;;;;;;;12.60;7.32;;;-5.10;99.90;;;;;;5000381;28;20076;-88
2021/12/29 03:19:05;;;;;;;16.10;7.97;;;-5.10;99.90;;;;;;5030654;28;20044;-88
2021/12/29 03:21:33;;;;;;;14.15;7.30;;;-5.20;99.90;;;;;;5038166;28;20103;-89
2021/12/29 03:23:59;;;;;;;13.25;6.95;;;-5.10;99.90;;;;;;5037456;28;20026;-88
2021/12/29 03:26:25;;;;;;;12.15;6.15;;;-5.10;99.90;;;;;;5036169;28;20057;-87
2021/12/29 03:28:53;;;;;;;12.93;6.35;;;-5.10;99.90;;;;;;5037311;28;20033;-87
2021/12/29 03:31:21;;;;;;;11.18;6.10;;;-5.10;99.90;;;;;;5019202;28;20033;-89
2021/12/29 03:33:47;;;;;;;12.73;6.63;;;-5.10;99.90;;;;;;5019862;28;20426;-89
2021/12/29 03:36:14;;;;;;;12.25;5.70;;;-5.10;99.90;;;;;;5037098;28;20025;-86
2021/12/29 03:38:41;;;;;;;13.15;6.47;;;-5.10;99.90;;;;;;5036663;28;20030;-86
2021/12/29 03:41:12;;;;;;;11.50;6.40;;;-5.10;99.90;;;;;;5037268;28;20147;-87
2021/12/29 03:43:39;;;;;;;13.73;6.28;;;-5.10;99.90;;;;;;5036771;28;20483;-87
2021/12/29 03:46:06;;;;;;;13.25;7.07;;;-5.10;99.90;;;;;;5019353;28;20033;-85
2021/12/29 03:48:34;;;;;;;15.48;7.50;;;-5.10;99.90;;;;;;5018964;28;20037;-87
2021/12/29 03:51:01;;;;;;;13.13;6.68;;;-5.10;99.90;;;;;;5038225;28;20060;-88
2021/12/29 03:53:28;;;;;;;11.98;5.63;;;-5.10;99.90;;;;;;5036921;28;20025;-87
2021/12/29 03:55:54;;;;;;;11.57;6.28;;;-5.10;99.90;;;;;;5039148;28;20526;-87
2021/12/29 03:58:22;;;;;;;11.38;5.65;;;-5.10;99.90;;;;;;5020957;28;20025;-86
2021/12/29 04:00:50;;;;;;;10.25;5.35;;;-5.00;99.90;;;;;;5023280;28;20065;-85
2021/12/29 04:03:16;;;;;;;12.52;6.43;;;-5.00;99.90;;;;;;5050314;28;20048;-85
2021/12/29 04:05:42;;;;;;;11.75;6.25;;;-5.00;99.90;;;;;;5033479;28;20025;-86
2021/12/29 04:08:09;;;;;;;10.57;5.88;;;-5.00;99.90;;;;;;5037502;28;20357;-87
2021/12/29 04:10:36;;;;;;;12.77;6.38;;;-5.00;99.90;;;;;;5037181;28;20038;-85
2021/12/29 04:13:03;;;;;;;10.68;6.10;;;-5.00;99.90;;;;;;5019345;28;20035;-85
2021/12/29 04:15:30;;;;;;;11.60;6.32;;;-5.00;99.90;;;;;;5036513;28;20047;-86
2021/12/29 04:17:58;;;;;;;14.60;6.10;;;-4.90;99.90;;;;;;5018004;28;20040;-86
2021/12/29 04:23:12;;;;;;;17.60;8.57;;;-4.90;99.90;;;;;;5036335;28;20040;-85
2021/12/29 04:25:38;;;;;;;15.25;7.85;;;-4.90;99.90;;;;;;5018384;28;20026;-86
2021/12/29 04:28:14;;;;;;;18.67;8.63;;;-4.90;99.90;;;;;;5036286;28;20033;-87
2021/12/29 04:30:40;;;;;;;29.00;11.45;;;-5.00;99.90;;;;;;5018333;28;20038;-86
2021/12/29 04:33:07;;;;;;;22.45;11.35;;;-5.10;99.90;;;;;;5035205;28;20026;-87
2021/12/29 04:35:33;;;;;;;24.48;11.18;;;-5.10;99.90;;;;;;5018147;28;20025;-87
2021/12/29 04:37:59;;;;;;;17.75;8.65;;;-5.10;99.90;;;;;;5017837;28;20495;-89
2021/12/29 04:40:24;;;;;;;18.02;9.10;;;-5.10;99.90;;;;;;5017484;28;20053;-87
2021/12/29 04:42:50;;;;;;;17.92;8.73;;;-5.00;99.90;;;;;;5018097;28;20026;-85
2021/12/29 04:45:16;;;;;;;19.98;10.13;;;-5.00;99.90;;;;;;5035383;28;20055;-87
2021/12/29 04:47:45;;;;;;;31.00;15.15;;;-5.00;99.90;;;;;;5017869;28;20025;-86
2021/12/29 04:50:24;;;;;;;24.83;11.80;;;-5.00;99.90;;;;;;5018079;28;20365;-85
2021/12/29 04:52:52;;;;;;;25.55;11.52;;;-5.00;99.90;;;;;;5018409;28;20375;-86
2021/12/29 04:55:18;;;;;;;20.55;9.95;;;-5.10;99.90;;;;;;5017885;28;20021;-85
2021/12/29 04:57:45;;;;;;;14.48;7.68;;;-5.10;99.90;;;;;;5017235;28;20028;-85
2021/12/29 05:00:11;;;;;;;15.60;7.75;;;-5.00;99.90;;;;;;5036776;28;20352;-88
2021/12/29 05:02:37;;;;;;;18.42;9.25;;;-5.00;99.90;;;;;;5020750;28;20507;-89
2021/12/29 05:05:18;;;;;;;19.10;8.85;;;-5.00;99.90;;;;;;5047861;28;20041;-86
2021/12/29 05:10:27;;;;;;;16.63;8.63;;;-5.00;99.90;;;;;;5042354;28;20056;-89
2021/12/29 05:12:53;;;;;;;17.15;7.60;;;-5.00;99.90;;;;;;5035908;28;20499;-88
2021/12/29 05:15:19;;;;;;;15.27;8.38;;;-5.00;99.90;;;;;;5017765;28;20080;-88
2021/12/29 05:17:44;;;;;;;17.15;8.85;;;-5.00;99.90;;;;;;5035281;28;20091;-88
2021/12/29 05:20:10;;;;;;;15.10;7.88;;;-5.00;99.90;;;;;;5035181;28;20057;-86
2021/12/29 05:22:36;;;;;;;13.23;7.32;;;-5.00;99.90;;;;;;5034955;28;20080;-87
2021/12/29 05:25:02;;;;;;;15.50;7.68;;;-5.00;99.90;;;;;;5035259;28;20029;-86
2021/12/29 05:27:28;;;;;;;15.10;7.18;;;-5.00;99.90;;;;;;5016429;28;20037;-85
2021/12/29 05:29:53;;;;;;;16.35;8.05;;;-5.00;99.90;;;;;;5016382;28;20395;-85
2021/12/29 05:32:19;;;;;;;18.08;8.90;;;-5.00;99.90;;;;;;5034148;28;20443;-85
2021/12/29 05:34:45;;;;;;;18.13;8.88;;;-5.00;99.90;;;;;;5016661;28;20032;-85
2021/12/29 05:37:10;;;;;;;17.05;8.90;;;-5.00;99.90;;;;;;5034234;28;20029;-85
2021/12/29 05:39:36;;;;;;;17.45;8.57;;;-5.00;99.90;;;;;;5034855;28;20033;-85
2021/12/29 05:42:02;;;;;;;19.98;9.68;;;-5.10;99.90;;;;;;5034076;28;20033;-86
2021/12/29 05:44:27;;;;;;;16.77;9.02;;;-5.10;99.90;;;;;;5037481;28;20033;-86
2021/12/29 05:46:53;;;;;;;14.50;7.60;;;-5.10;99.90;;;;;;5034347;28;20061;-85
2021/12/29 05:49:19;;;;;;;16.00;7.85;;;-5.10;99.90;;;;;;5017214;28;20368;-85
2021/12/29 05:51:44;;;;;;;16.13;7.03;;;-5.10;99.90;;;;;;5034202;28;20061;-85
2021/12/29 05:54:10;;;;;;;14.57;7.45;;;-5.10;99.90;;;;;;5016279;28;20032;-86
2021/12/29 05:56:37;;;;;;;31.90;16.38;;;-5.10;99.90;;;;;;5016012;28;20060;-85
2021/12/29 05:59:03;;;;;;;23.88;11.70;;;-5.20;99.90;;;;;;5016352;28;20091;-85
2021/12/29 06:01:31;;;;;;;18.48;8.95;;;-5.20;99.90;;;;;;5035554;28;20037;-86
2021/12/29 06:03:57;;;;;;;16.95;8.75;;;-5.10;99.90;;;;;;5017294;28;20143;-86
2021/12/29 06:06:23;;;;;;;16.65;7.68;;;-5.10;99.90;;;;;;5034592;28;20033;-86
2021/12/29 06:08:48;;;;;;;15.07;7.72;;;-5.10;99.90;;;;;;5038703;28;20463;-87
2021/12/29 06:11:14;;;;;;;15.70;8.13;;;-5.10;99.90;;;;;;5030067;28;20037;-85
2021/12/29 06:13:39;;;;;;;16.02;8.13;;;-5.10;99.90;;;;;;5044097;28;20026;-85
2021/12/29 06:16:05;;;;;;;15.63;7.55;;;-5.10;99.90;;;;;;5035922;28;20033;-86
2021/12/29 06:18:31;;;;;;;19.60;8.27;;;-5.00;99.90;;;;;;5016375;28;20034;-85
2021/12/29 06:20:57;;;;;;;18.98;8.35;;;-5.00;99.90;;;;;;5012778;28;20086;-85
2021/12/29 06:23:22;;;;;;;16.60;7.78;;;-5.00;99.90;;;;;;5013871;28;20030;-85
2021/12/29 06:25:48;;;;;;;14.63;7.45;;;-5.00;99.90;;;;;;5013182;28;20030;-86
2021/12/29 06:28:14;;;;;;;17.35;8.52;;;-4.90;99.90;;;;;;5013032;28;20041;-86
2021/12/29 06:30:41;;;;;;;15.98;8.25;;;-4.90;99.90;;;;;;5014352;28;20037;-85
2021/12/29 06:33:06;;;;;;;14.23;7.05;;;-4.90;99.90;;;;;;5014309;28;20049;-87
2021/12/29 06:35:32;;;;;;;15.32;7.35;;;-4.90;99.90;;;;;;5013437;28;20452;-87
2021/12/29 06:37:58;;;;;;;17.50;8.20;;;-4.90;99.90;;;;;;5014269;28;20034;-87
2021/12/29 06:40:24;;;;;;;19.52;8.07;;;-4.80;99.90;;;;;;5014210;28;20029;-88
2021/12/29 06:42:51;;;;;;;20.20;9.15;;;-4.80;99.90;;;;;;5013142;28;20120;-88
2021/12/29 06:45:17;;;;;;;19.90;9.00;;;-4.80;99.90;;;;;;5012713;28;20468;-88
2021/12/29 06:47:42;;;;;;;17.45;9.02;;;-4.90;99.90;;;;;;5012790;28;20034;-88
2021/12/29 06:50:09;;;;;;;18.25;9.02;;;-4.90;99.90;;;;;;5013288;28;20030;-88
2021/12/29 06:52:35;;;;;;;18.85;9.43;;;-4.80;99.90;;;;;;5014539;28;20061;-87
2021/12/29 06:55:01;;;;;;;15.63;8.10;;;-4.80;99.90;;;;;;5013304;28;20373;-87
2021/12/29 06:57:27;;;;;;;14.88;7.47;;;-4.80;99.90;;;;;;5013862;28;20125;-88
2021/12/29 06:59:53;;;;;;;16.25;8.30;;;-4.80;99.90;;;;;;5012934;28;20037;-90
2021/12/29 07:02:18;;;;;;;19.00;9.48;;;-4.80;99.90;;;;;;5017190;28;20030;-88
2021/12/29 07:04:44;;;;;;;23.08;10.68;;;-4.80;99.90;;;;;;5019616;28;20030;-87
2021/12/29 07:07:10;;;;;;;16.83;9.50;;;-4.80;99.90;;;;;;5017279;28;20392;-86
2021/12/29 07:09:36;;;;;;;22.65;10.18;;;-4.70;99.90;;;;;;5018007;28;20030;-88
2021/12/29 07:12:05;;;;;;;22.50;11.15;;;-4.80;99.90;;;;;;5020112;28;20033;-87
2021/12/29 07:14:30;;;;;;;19.02;9.23;;;-4.70;99.90;;;;;;5031609;28;20033;-86
2021/12/29 07:16:56;;;;;;;22.45;9.60;;;-4.70;99.90;;;;;;5035319;28;20045;-85
2021/12/29 07:19:22;;;;;;;21.30;9.02;;;-4.60;99.90;;;;;;5027321;28;20029;-87
2021/12/29 07:21:49;;;;;;;19.38;9.05;;;-4.60;99.90;;;;;;5015789;28;20053;-82
2021/12/29 07:24:16;;;;;;;18.90;9.25;;;-4.60;99.90;;;;;;5017820;28;20065;-83
2021/12/29 07:26:42;;;;;;;20.67;9.23;;;-4.60;99.90;;;;;;5017681;28;20097;-84
2021/12/29 07:29:08;;;;;;;21.60;9.73;;;-4.60;99.90;;;;;;5017268;28;20033;-87
2021/12/29 07:31:35;;;;;;;25.15;9.77;;;-4.50;99.90;;;;;;5016308;28;20076;-83
2021/12/29 07:34:00;;;;;;;18.80;8.80;;;-4.50;99.90;;;;;;5016843;28;20022;-88
2021/12/29 07:36:26;;;;;;;16.67;8.23;;;-4.50;99.90;;;;;;5019942;28;20349;-89
2021/12/29 07:38:52;;;;;;;17.60;8.07;;;-4.50;99.90;;;;;;5017741;28;20045;-88
2021/12/29 07:41:18;;;;;;;19.65;8.52;;;-4.50;99.90;;;;;;5016884;28;20030;-90
2021/12/29 07:43:44;;;;;;;17.77;8.32;;;-4.50;99.90;;;;;;5016122;28;20061;-84
2021/12/29 07:46:12;;;;;;;25.27;13.23;;;-4.50;99.90;;;;;;5018517;28;20044;-79
2021/12/29 07:48:38;;;;;;;26.52;13.25;;;-4.40;99.90;;;;;;5015716;28;20329;-81
2021/12/29 07:51:05;;;;;;;20.73;10.73;;;-4.40;99.90;;;;;;5017543;28;20030;-82
2021/12/29 07:53:31;;;;;;;19.70;9.73;;;-4.30;99.90;;;;;;5016417;28;20021;-85
2021/12/29 07:55:57;;;;;;;17.17;8.77;;;-4.30;99.90;;;;;;5014663;28;20079;-85
2021/12/29 07:58:23;;;;;;;17.90;9.25;;;-4.30;99.90;;;;;;5014340;28;20124;-84
2021/12/29 08:00:49;;;;;;;23.17;9.80;;;-4.30;99.90;;;;;;5014572;28;20022;-84
2021/12/29 08:03:16;;;;;;;15.07;8.43;;;-4.40;99.90;;;;;;5014879;28;20033;-84
2021/12/29 08:05:43;;;;;;;15.75;8.18;;;-4.40;99.90;;;;;;5014519;28;20158;-81
2021/12/29 08:08:09;;;;;;;14.20;8.00;;;-4.40;99.90;;;;;;5014822;28;20076;-81
2021/12/29 08:10:36;;;;;;;11.45;6.38;;;-4.50;99.90;;;;;;5016786;28;20341;-81
2021/12/29 08:13:04;;;;;;;12.85;6.75;;;-4.40;99.90;;;;;;5016135;28;20026;-81
2021/12/29 08:15:30;;;;;;;12.43;6.32;;;-4.50;99.90;;;;;;5015560;28;20085;-81
2021/12/29 08:17:57;;;;;;;13.02;6.50;;;-4.40;99.90;;;;;;5023024;28;20036;-81
2021/12/29 08:20:23;;;;;;;12.10;6.30;;;-4.40;99.90;;;;;;5027353;28;20069;-80
2021/12/29 08:22:49;;;;;;;12.82;6.38;;;-4.40;99.90;;;;;;5027067;28;20030;-81
2021/12/29 08:25:15;;;;;;;14.25;7.07;;;-4.30;99.90;;;;;;5016244;28;20026;-80
2021/12/29 08:27:41;;;;;;;75.35;32.17;;;-4.30;99.90;;;;;;5015976;28;20026;-78
2021/12/29 08:30:07;;;;;;;43.03;20.75;;;-4.30;99.90;;;;;;5015448;28;20029;-79
2021/12/29 08:32:33;;;;;;;27.52;13.50;;;-4.40;99.90;;;;;;5016127;28;20025;-83
2021/12/29 08:34:59;;;;;;;18.75;10.07;;;-4.40;99.90;;;;;;5014888;28;20045;-84
2021/12/29 08:37:24;;;;;;;15.60;8.15;;;-4.40;99.90;;;;;;5014988;28;20506;-83
2021/12/29 08:39:50;;;;;;;16.90;7.82;;;-4.40;99.90;;;;;;5013178;28;20522;-85
2021/12/29 08:42:16;;;;;;;12.90;7.07;;;-4.30;99.90;;;;;;5014010;28;20112;-85
2021/12/29 08:44:41;;;;;;;14.80;7.30;;;-4.30;99.90;;;;;;5013363;28;20495;-85
2021/12/29 08:47:08;;;;;;;15.10;7.93;;;-4.30;99.90;;;;;;5015029;28;20030;-85
2021/12/29 08:49:34;;;;;;;29.67;14.93;;;-4.30;99.90;;;;;;5012684;28;20034;-87
2021/12/29 08:52:00;;;;;;;31.08;16.65;;;-4.30;99.90;;;;;;5010593;28;20026;-82
2021/12/29 08:54:27;;;;;;;23.92;11.10;;;-4.20;99.90;;;;;;5013931;28;20084;-83
2021/12/29 08:56:54;;;;;;;16.67;9.10;;;-4.20;99.90;;;;;;5014641;28;20175;-83
2021/12/29 08:59:21;;;;;;;18.65;8.77;;;-4.20;99.90;;;;;;5015591;28;20018;-90
2021/12/29 09:01:47;;;;;;;17.25;8.18;;;-4.10;99.90;;;;;;5015013;28;20034;-89
2021/12/29 09:04:13;;;;;;;14.93;7.57;;;-4.10;99.90;;;;;;5014205;28;20129;-88
2021/12/29 09:06:39;;;;;;;15.27;7.53;;;-4.00;99.90;;;;;;5015714;28;20372;-88
2021/12/29 09:09:05;;;;;;;16.50;8.35;;;-4.00;99.90;;;;;;5015380;28;20029;-90
2021/12/29 09:11:31;;;;;;;15.63;8.05;;;-4.00;99.90;;;;;;5014841;28;20082;-91
2021/12/29 09:13:57;;;;;;;24.17;11.10;;;-4.00;99.90;;;;;;5017053;28;20500;-91
2021/12/29 09:16:23;;;;;;;22.23;10.73;;;-3.90;99.90;;;;;;5019360;28;20081;-91
2021/12/29 09:18:49;;;;;;;35.80;17.35;;;-3.90;99.90;;;;;;5018302;28;20076;-90
2021/12/29 09:21:18;;;;;;;25.63;12.52;;;-3.80;99.90;;;;;;5030630;28;20103;-90
2021/12/29 09:23:44;;;;;;;21.25;11.60;;;-3.80;99.90;;;;;;5029101;28;20029;-91
2021/12/29 09:26:13;;;;;;;19.40;10.20;;;-3.70;99.90;;;;;;5026911;28;20057;-90
2021/12/29 09:28:40;;;;;;;16.77;8.60;;;-3.60;99.90;;;;;;5035963;28;20036;-92
2021/12/29 09:31:06;;;;;;;14.88;8.13;;;-3.60;99.90;;;;;;5016726;28;20037;-93
2021/12/29 09:33:33;;;;;;;14.85;7.38;;;-3.60;99.90;;;;;;5020590;28;20375;-84
2021/12/29 09:36:02;;;;;;;14.93;7.47;;;-3.60;99.90;;;;;;5018843;28;20037;-87
2021/12/29 09:38:35;;;;;;;14.10;7.28;;;-3.60;99.90;;;;;;5034096;28;20475;-84
2021/12/29 09:41:02;;;;;;;14.02;7.05;;;-3.50;99.90;;;;;;5021713;28;20090;-85
2021/12/29 09:43:30;;;;;;;24.52;12.07;;;-3.40;99.90;;;;;;5033023;28;20105;-86
2021/12/29 09:45:56;;;;;;;17.50;8.75;;;-3.40;99.90;;;;;;5033143;28;20033;-86
2021/12/29 09:48:22;;;;;;;15.55;8.23;;;-3.40;99.90;;;;;;5031200;28;20112;-86
2021/12/29 09:50:50;;;;;;;15.15;7.68;;;-3.40;99.90;;;;;;5033160;28;20029;-86
2021/12/29 09:53:16;;;;;;;14.20;7.25;;;-3.40;99.90;;;;;;5030148;28;20097;-86
2021/12/29 09:55:44;;;;;;;14.00;7.47;;;-3.30;99.90;;;;;;5021309;28;20022;-85
2021/12/29 09:58:11;;;;;;;13.70;7.47;;;-3.30;99.90;;;;;;5033274;28;20017;-86
2021/12/29 10:00:59;;;;;;;13.40;7.68;;;-3.30;99.90;;;;;;5039233;28;20140;-84
2021/12/29 10:03:27;;;;;;;17.13;7.80;;;-3.30;99.20;;;;;;5009033;28;20022;-85
2021/12/29 10:05:57;;;;;;;12.95;6.57;;;-3.40;99.90;;;;;;5029112;28;20467;-85
2021/12/29 10:08:35;;;;;;;14.67;7.77;;;-3.40;99.90;;;;;;5026757;28;20383;-84
2021/12/29 10:11:05;;;;;;;19.30;8.90;;;-3.40;99.90;;;;;;5041342;28;20041;-85
2021/12/29 10:13:37;;;;;;;13.88;8.00;;;-3.40;99.80;;;;;;5041810;28;20056;-84
2021/12/29 10:16:08;;;;;;;15.48;7.72;;;-3.50;99.60;;;;;;5029647;28;20032;-85
2021/12/29 10:18:37;;;;;;;19.05;8.93;;;-3.50;99.90;;;;;;5011691;28;20488;-86
2021/12/29 10:21:09;;;;;;;14.73;8.27;;;-3.50;99.90;;;;;;5025044;28;20124;-87
2021/12/29 10:23:40;;;;;;;16.27;8.45;;;-3.50;99.90;;;;;;5028080;28;20064;-85
2021/12/29 10:26:11;;;;;;;15.10;7.47;;;-3.40;99.90;;;;;;5030644;28;20513;-84
2021/12/29 10:28:41;;;;;;;19.67;9.98;;;-3.40;99.90;;;;;;5017169;28;20055;-83
2021/12/29 10:31:13;;;;;;;23.35;11.40;;;-3.40;99.90;;;;;;5023891;28;20025;-83
2021/12/29 10:33:46;;;;;;;17.58;9.32;;;-3.40;99.90;;;;;;5042072;28;20014;-85
2021/12/29 10:36:14;;;;;;;17.80;8.82;;;-3.30;99.90;;;;;;5027986;28;20024;-85
2021/12/29 10:38:42;;;;;;;20.63;10.15;;;-3.30;99.90;;;;;;5033837;28;20025;-87
2021/12/29 10:41:09;;;;;;;18.90;9.65;;;-3.30;99.90;;;;;;5029178;28;20487;-87
2021/12/29 10:43:36;;;;;;;17.45;8.40;;;-3.30;99.90;;;;;;5029468;28;20483;-84
2021/12/29 10:46:02;;;;;;;16.58;8.63;;;-3.30;99.90;;;;;;5050948;28;20065;-86
2021/12/29 10:48:30;;;;;;;17.27;8.20;;;-3.30;99.90;;;;;;5031217;28;20430;-84
2021/12/29 10:51:07;;;;;;;17.73;8.57;;;-3.20;99.90;;;;;;5037035;28;20038;-85
2021/12/29 10:53:36;;;;;;;16.20;7.97;;;-3.20;99.90;;;;;;5020391;28;20029;-86
2021/12/29 10:56:03;;;;;;;16.88;9.15;;;-3.20;99.90;;;;;;5019945;28;20026;-84
2021/12/29 10:58:33;;;;;;;14.27;7.53;;;-3.20;99.20;;;;;;5020198;28;20087;-84
2021/12/29 11:01:01;;;;;;;16.95;7.90;;;-3.10;99.00;;;;;;5037696;28;20026;-85
2021/12/29 11:03:29;;;;;;;19.17;8.77;;;-3.20;99.50;;;;;;5016871;28;20033;-84
2021/12/29 11:06:00;;;;;;;15.80;8.35;;;-3.20;99.00;;;;;;5019701;28;20383;-85
2021/12/29 11:08:44;;;;;;;39.38;16.92;;;-3.20;98.90;;;;;;5019471;28;20025;-86
2021/12/29 11:11:10;;;;;;;26.30;10.85;;;-3.20;99.10;;;;;;5001591;28;20030;-85
2021/12/29 11:13:36;;;;;;;20.70;9.52;;;-3.30;98.90;;;;;;5037106;28;20442;-85
2021/12/29 11:16:05;;;;;;;20.33;9.07;;;-3.20;99.10;;;;;;5036834;28;20064;-85
2021/12/29 11:18:51;;;;;;;16.92;9.05;;;-3.20;99.30;;;;;;5019510;28;20052;-85
2021/12/29 11:21:35;;;;;;;16.58;9.07;;;-3.20;98.70;;;;;;5034615;28;20071;-85
2021/12/29 11:24:26;;;;;;;18.20;8.27;;;-3.20;99.20;;;;;;5018967;28;20052;-86
2021/12/29 11:26:53;;;;;;;14.55;7.10;;;-3.20;98.70;;;;;;5027280;28;20022;-84
2021/12/29 11:29:22;;;;;;;15.10;7.82;;;-3.20;99.10;;;;;;5036621;28;20041;-84
2021/12/29 11:32:02;;;;;;;13.32;7.10;;;-3.10;98.90;;;;;;5019459;28;20140;-83
2021/12/29 11:34:29;;;;;;;18.58;9.88;;;-3.10;98.50;;;;;;5037055;28;20063;-85
2021/12/29 11:37:11;;;;;;;19.08;10.52;;;-3.10;98.80;;;;;;5019437;28;20033;-85
2021/12/29 11:39:43;;;;;;;18.77;9.07;;;-3.20;98.00;;;;;;5037228;28;20029;-81
2021/12/29 11:42:10;;;;;;;16.52;8.93;;;-3.20;98.60;;;;;;5033253;28;20033;-83
2021/12/29 11:44:37;;;;;;;15.18;7.18;;;-3.20;98.80;;;;;;5036558;28;20025;-85
2021/12/29 11:47:03;;;;;;;14.43;7.70;;;-3.20;99.10;;;;;;5018479;28;20108;-85
2021/12/29 11:49:30;;;;;;;24.85;12.93;;;-3.20;98.40;;;;;;5017595;28;20168;-84
2021/12/29 11:52:09;;;;;;;18.45;10.13;;;-3.30;98.50;;;;;;5018884;28;20032;-85
2021/12/29 11:55:03;;;;;;;18.63;9.07;;;-3.30;98.80;;;;;;5018800;28;20560;-85
2021/12/29 11:57:31;;;;;;;16.02;8.00;;;-3.20;98.70;;;;;;5016186;28;20033;-86
2021/12/29 12:00:17;;;;;;;15.30;7.47;;;-3.20;99.30;;;;;;5035794;28;20018;-86
2021/12/29 12:02:48;;;;;;;11.93;6.50;;;-3.20;98.90;;;;;;5027923;28;20032;-86
2021/12/29 12:05:22;;;;;;;14.18;6.97;;;-3.20;98.50;;;;;;5036854;28;20040;-84
2021/12/29 12:07:49;;;;;;;10.43;6.20;;;-3.20;98.30;;;;;;5032309;28;20032;-85
2021/12/29 12:10:35;;;;;;;12.73;6.53;;;-3.10;98.50;;;;;;5035648;28;20037;-85
2021/12/29 12:13:05;;;;;;;23.83;12.48;;;-3.20;98.10;;;;;;4998460;28;20055;-86
2021/12/29 12:15:36;;;;;;;16.40;9.00;;;-3.10;98.70;;;;;;5015568;28;20021;-85
2021/12/29 12:18:07;;;;;;;15.77;8.35;;;-3.10;98.50;;;;;;5018526;28;20179;-85
2021/12/29 12:20:48;;;;;;;13.75;7.53;;;-3.10;97.90;;;;;;5017650;28;20091;-84
2021/12/29 12:23:30;;;;;;;12.32;6.90;;;-3.10;97.90;;;;;;5016283;28;20037;-84
2021/12/29 12:26:08;;;;;;;11.75;6.68;;;-3.10;98.20;;;;;;5035504;28;20028;-84
2021/12/29 12:28:46;;;;;;;11.32;6.43;;;-3.10;98.10;;;;;;5015889;28;20029;-85
2021/12/29 12:31:34;;;;;;;12.82;7.00;;;-3.10;98.00;;;;;;5016188;28;20033;-86
2021/12/29 12:34:12;;;;;;;13.88;6.93;;;-3.10;97.30;;;;;;5016857;28;20039;-86
2021/12/29 12:36:42;;;;;;;13.95;7.40;;;-3.10;97.40;;;;;;5034323;28;20013;-86
2021/12/29 12:39:21;;;;;;;12.10;6.65;;;-3.20;97.60;;;;;;5023318;28;20036;-85
2021/12/29 12:41:50;;;;;;;14.55;6.43;;;-3.20;97.40;;;;;;5005546;28;20098;-85
2021/12/29 12:44:19;;;;;;;13.88;7.20;;;-3.20;98.00;;;;;;5028650;28;20142;-86
2021/12/29 12:46:48;;;;;;;14.23;7.07;;;-3.20;98.00;;;;;;5027606;28;20160;-85
2021/12/29 12:49:26;;;;;;;16.30;7.50;;;-3.20;97.80;;;;;;5027457;28;20030;-82